TimeEST,TemperatureF,Dew PointF,Humidity,Sea Level PressureIn,VisibilityMPH,Wind Direction,Wind SpeedMPH,Gust SpeedMPH,PrecipitationIn,Events,Conditions,WindDirDegrees,DateUTC
12:56 AM,41.0,37.9,89,29.99,10.0,NE,3.5,-,N/A,,Clear,50,2013-02-25 05:56:00
1:56 AM,44.1,34.0,68,29.99,10.0,ENE,3.5,-,N/A,,Clear,60,2013-02-25 06:56:00
2:56 AM,45.0,30.9,58,30.00,10.0,ENE,4.6,-,N/A,,Clear,60,2013-02-25 07:56:00
3:56 AM,44.1,30.0,58,30.01,10.0,ENE,3.5,-,N/A,,Clear,70,2013-02-25 08:56:00
4:56 AM,43.0,30.0,60,30.01,10.0,ENE,4.6,-,N/A,,Clear,60,2013-02-25 09:56:00
5:56 AM,44.1,28.9,55,30.04,10.0,NE,5.8,-,N/A,,Clear,50,2013-02-25 10:56:00
6:56 AM,43.0,28.0,56,30.06,10.0,ENE,6.9,-,N/A,,Clear,60,2013-02-25 11:56:00
7:56 AM,43.0,27.0,53,30.09,10.0,NE,8.1,-,N/A,,Clear,50,2013-02-25 12:56:00
8:56 AM,44.1,27.0,51,30.14,10.0,ENE,8.1,-,N/A,,Clear,60,2013-02-25 13:56:00
9:56 AM,45.0,27.0,49,30.12,10.0,NE,8.1,18.4,N/A,,Clear,50,2013-02-25 14:56:00
10:56 AM,45.0,28.0,52,30.11,10.0,NE,9.2,19.6,N/A,,Clear,50,2013-02-25 15:56:00
11:56 AM,45.0,30.0,56,30.11,10.0,NE,11.5,17.3,N/A,,Clear,50,2013-02-25 16:56:00
12:56 PM,46.0,30.9,56,30.09,10.0,NE,8.1,-,N/A,,Clear,40,2013-02-25 17:56:00
1:56 PM,45.0,30.9,58,30.05,10.0,ENE,9.2,-,N/A,,Scattered Clouds,60,2013-02-25 18:56:00
2:56 PM,45.0,30.9,58,30.06,10.0,NNE,11.5,17.3,N/A,,Overcast,30,2013-02-25 19:56:00
3:56 PM,44.1,30.0,58,30.06,10.0,ENE,9.2,-,N/A,,Overcast,70,2013-02-25 20:56:00
4:56 PM,44.1,30.0,58,30.06,10.0,ENE,10.4,-,N/A,,Overcast,70,2013-02-25 21:56:00
5:09 PM,44.6,30.2,57,30.05,10.0,ENE,9.2,-,N/A,,Overcast,70,2013-02-25 22:09:00
5:56 PM,43.0,30.0,60,30.05,10.0,ENE,9.2,18.4,N/A,,Overcast,70,2013-02-25 22:56:00
6:18 PM,42.8,30.2,61,30.05,10.0,ENE,11.5,17.3,N/A,,Overcast,70,2013-02-25 23:18:00
6:56 PM,42.1,30.0,62,30.05,10.0,ENE,9.2,17.3,N/A,,Overcast,70,2013-02-25 23:56:00
7:56 PM,41.0,30.0,65,30.05,10.0,East,10.4,17.3,N/A,,Overcast,80,2013-02-26 00:56:00
8:56 PM,37.9,33.1,83,30.05,4.0,ENE,10.4,17.3,0.00,Rain,Light Rain,70,2013-02-26 01:56:00
9:56 PM,37.0,34.0,89,30.05,4.0,ENE,5.8,-,0.00,Rain,Light Rain,60,2013-02-26 02:56:00
10:56 PM,37.0,34.0,89,30.04,9.0,NE,8.1,-,0.00,,Overcast,50,2013-02-26 03:56:00
11:56 PM,36.0,34.0,93,30.00,5.0,NE,9.2,-,0.00,Rain,Light Rain,40,2013-02-26 04:56:00